Time;durP1;ratioP1;P1;durP2;ratioP2;P2;SDS_P1;SDS_P2;PMS_P1;PMS_P2;Temp;Humidity;BMP_temperature;BMP_pressure;BME280_temperature;BME280_humidity;BME280_pressure;Samples;Min_cycle;Max_cycle;Signal;HPM_P1;HPM_P2
2022/12/05 00:02:15;;;;;;;;;;;3.50;99.90;;;;;;5047207;28;20443;-69
2022/12/05 00:04:42;;;;;;;;;;;3.50;99.90;;;;;;5050524;28;19928;-71
2022/12/05 00:07:16;;;;;;;;;;;3.50;99.90;;;;;;5048515;28;19934;-70
2022/12/05 00:09:52;;;;;;;;;;;3.50;99.90;;;;;;5046506;28;20465;-70
2022/12/05 00:12:27;;;;;;;;;;;3.50;99.90;;;;;;5047778;28;20239;-70
2022/12/05 00:14:53;;;;;;;;;;;3.50;99.90;;;;;;5049894;28;20660;-70
2022/12/05 00:17:23;;;;;;;;;;;3.50;99.90;;;;;;5037235;28;20432;-70
2022/12/05 00:22:40;;;;;;;;;;;3.50;99.90;;;;;;5046123;28;19929;-72
2022/12/05 00:25:07;;;;;;;;;;;3.50;99.90;;;;;;5044692;28;20043;-70
2022/12/05 00:27:34;;;;;;;;;;;3.50;99.90;;;;;;5045468;28;20010;-71
2022/12/05 00:30:11;;;;;;;;;;;3.50;99.90;;;;;;5050652;28;20013;-71
2022/12/05 00:32:38;;;;;;;;;;;3.50;99.90;;;;;;5048565;28;19963;-71
2022/12/05 00:35:07;;;;;;;;;;;3.50;99.90;;;;;;5046224;28;19932;-72
2022/12/05 00:37:33;;;;;;;;;;;3.50;99.90;;;;;;5047486;28;19928;-72
2022/12/05 00:40:12;;;;;;;;;;;3.50;99.90;;;;;;5053126;28;20417;-72
2022/12/05 00:42:43;;;;;;;;;;;3.50;99.90;;;;;;5049288;28;19929;-72
2022/12/05 00:45:14;;;;;;;;;;;3.50;99.90;;;;;;5045940;28;19928;-72
2022/12/05 00:47:48;;;;;;;;;;;3.50;99.90;;;;;;5044045;28;19994;-72
2022/12/05 00:50:15;;;;;;;;;;;3.50;99.90;;;;;;5039412;28;20160;-72
2022/12/05 00:52:46;;;;;;;;;;;3.50;99.90;;;;;;5037187;28;20043;-71
2022/12/05 00:55:38;;;;;;;;;;;3.50;99.90;;;;;;5039833;28;20495;-70
2022/12/05 00:58:08;;;;;;;;;;;3.40;99.90;;;;;;5034056;28;19920;-71
2022/12/05 01:00:35;;;;;;;;;;;3.50;99.90;;;;;;5044055;28;19935;-70
2022/12/05 01:03:02;;;;;;;;;;;3.50;99.90;;;;;;5041414;28;20404;-70
2022/12/05 01:05:29;;;;;;;;;;;3.50;99.90;;;;;;5064491;28;19935;-70
2022/12/05 01:08:06;;;;;;;;;;;3.50;99.90;;;;;;5050452;28;19931;-70
2022/12/05 01:10:35;;;;;;;;;;;3.50;99.90;;;;;;5037431;28;19934;-71
2022/12/05 01:13:14;;;;;;;;;;;3.40;99.90;;;;;;5048985;28;20046;-71
2022/12/05 01:15:48;;;;;;;;;;;3.40;99.90;;;;;;5038184;28;20406;-71
2022/12/05 01:18:24;;;;;;;;;;;3.50;99.90;;;;;;5048420;28;19946;-71
2022/12/05 01:20:51;;;;;;;;;;;3.40;99.90;;;;;;5041173;28;20391;-71
2022/12/05 01:23:18;;;;;;;;;;;3.40;99.90;;;;;;5049775;28;21060;-71
2022/12/05 01:25:51;;;;;;;;;;;3.40;99.90;;;;;;5045363;28;20090;-71
2022/12/05 01:28:27;;;;;;;;;;;3.50;99.90;;;;;;5041136;28;20031;-70
2022/12/05 01:30:54;;;;;;;;;;;3.40;99.90;;;;;;5051077;28;20047;-72
2022/12/05 01:33:27;;;;;;;;;;;3.40;99.90;;;;;;5048488;28;19929;-72
2022/12/05 01:35:56;;;;;;;;;;;3.50;99.90;;;;;;5045648;28;19935;-72
2022/12/05 01:38:26;;;;;;;;;;;3.40;99.90;;;;;;5057312;28;20076;-72
2022/12/05 01:40:59;;;;;;;;;;;3.40;99.90;;;;;;5049123;28;19928;-72
2022/12/05 01:43:28;;;;;;;;;;;3.40;99.90;;;;;;5040486;28;20645;-72
2022/12/05 01:45:57;;;;;;;;;;;3.40;99.90;;;;;;5040035;28;20664;-72
2022/12/05 01:48:41;;;;;;;;;;;3.50;99.90;;;;;;5047774;28;19951;-71
2022/12/05 01:54:18;;;;;;;;;;;3.40;99.90;;;;;;5037132;28;19931;-71
2022/12/05 01:56:58;;;;;;;;;;;3.40;99.90;;;;;;5041487;28;20212;-72
2022/12/05 01:59:34;;;;;;;;;;;3.30;99.90;;;;;;5044169;28;20133;-71
2022/12/05 02:02:01;;;;;;;;;;;3.40;99.90;;;;;;5048706;28;19975;-71
2022/12/05 02:04:28;;;;;;;;;;;3.40;99.90;;;;;;5045569;28;19928;-71
2022/12/05 02:07:01;;;;;;;;;;;3.40;99.90;;;;;;5041800;28;20864;-72
2022/12/05 02:09:28;;;;;;;;;;;3.40;99.90;;;;;;5042314;28;19931;-71
2022/12/05 02:11:58;;;;;;;;;;;3.40;99.90;;;;;;5037714;28;19928;-72
2022/12/05 02:14:35;;;;;;;;;;;3.40;99.90;;;;;;5043206;28;20005;-71
2022/12/05 02:17:16;;;;;;;;;;;3.40;99.90;;;;;;5042577;28;19928;-70
2022/12/05 02:19:58;;;;;;;;;;;3.40;99.90;;;;;;5046290;28;20088;-71
2022/12/05 02:22:51;;;;;;;;;;;3.40;99.90;;;;;;5042224;28;20197;-72
2022/12/05 02:25:34;;;;;;;;;;;3.40;99.90;;;;;;5039524;28;20216;-72
2022/12/05 02:28:33;;;;;;;;;;;3.40;99.90;;;;;;5040566;28;20112;-71
2022/12/05 02:31:11;;;;;;;;;;;3.40;99.90;;;;;;4984855;28;19932;-70
2022/12/05 02:33:54;;;;;;;;;;;3.40;99.90;;;;;;5038771;28;19989;-70
2022/12/05 02:36:30;;;;;;;;;;;3.40;99.90;;;;;;5033999;28;20470;-72
2022/12/05 02:39:02;;;;;;;;;;;3.40;99.90;;;;;;5048459;28;20541;-70
2022/12/05 02:41:32;;;;;;;;;;;3.40;99.90;;;;;;5059885;28;20989;-71
2022/12/05 02:44:01;;;;;;;;;;;3.40;99.90;;;;;;5058031;28;19932;-70
2022/12/05 02:46:31;;;;;;;;;;;3.40;99.90;;;;;;5064274;28;19981;-70
2022/12/05 02:49:00;;;;;;;;;;;3.40;99.90;;;;;;5060548;28;19928;-70
2022/12/05 02:51:29;;;;;;;;;;;3.40;99.90;;;;;;5064766;28;19932;-70
2022/12/05 02:54:00;;;;;;;;;;;3.40;99.90;;;;;;5054324;28;20379;-71
2022/12/05 02:59:12;;;;;;;;;;;3.30;99.90;;;;;;5049139;28;19981;-71
2022/12/05 03:01:56;;;;;;;;;;;3.40;99.90;;;;;;5032787;28;21264;-70
2022/12/05 03:04:34;;;;;;;;;;;3.40;99.90;;;;;;5052819;28;20031;-70
2022/12/05 03:07:24;;;;;;;;;;;3.40;99.90;;;;;;5039852;28;20060;-70
2022/12/05 03:10:12;;;;;;;;;;;3.40;99.90;;;;;;5035750;28;19968;-71
2022/12/05 03:12:41;;;;;;;;;;;3.40;99.90;;;;;;5048802;28;19936;-71
2022/12/05 03:15:32;;;;;;;;;;;3.40;99.90;;;;;;5035796;28;20089;-72
2022/12/05 03:18:16;;;;;;;;;;;3.40;99.90;;;;;;5036386;28;20178;-71
2022/12/05 03:20:48;;;;;;;;;;;3.40;99.90;;;;;;5052895;28;19935;-71
2022/12/05 03:26:16;;;;;;;;;;;3.40;99.90;;;;;;5041800;28;20005;-71
2022/12/05 03:28:52;;;;;;;;;;;3.40;99.90;;;;;;5035983;28;19928;-71
2022/12/05 03:31:34;;;;;;;;;;;3.40;99.90;;;;;;5042393;28;20048;-71
2022/12/05 03:34:04;;;;;;;;;;;3.40;99.90;;;;;;5048060;28;20022;-70
2022/12/05 03:36:40;;;;;;;;;;;3.40;99.90;;;;;;5046970;28;20196;-70
2022/12/05 03:39:10;;;;;;;;;;;3.40;99.90;;;;;;5048261;28;20279;-70
2022/12/05 03:41:50;;;;;;;;;;;3.40;99.90;;;;;;5051517;28;20619;-70
2022/12/05 03:44:19;;;;;;;;;;;3.40;99.90;;;;;;5062919;28;20718;-71
2022/12/05 03:46:58;;;;;;;;;;;3.40;99.90;;;;;;5045608;28;20374;-72
2022/12/05 03:49:35;;;;;;;;;;;3.40;99.90;;;;;;5048624;28;20483;-70
2022/12/05 03:52:05;;;;;;;;;;;3.30;99.90;;;;;;5042686;28;20047;-72
2022/12/05 03:54:42;;;;;;;;;;;3.40;99.90;;;;;;5047592;28;20351;-71
2022/12/05 03:57:12;;;;;;;;;;;3.40;99.90;;;;;;5034648;28;20027;-70
2022/12/05 03:59:43;;;;;;;;;;;3.40;99.90;;;;;;5036296;28;20421;-68
2022/12/05 04:02:16;;;;;;;;;;;3.40;99.90;;;;;;5044514;28;19970;-71
2022/12/05 04:04:58;;;;;;;;;;;3.40;99.90;;;;;;5040656;28;20151;-69
2022/12/05 04:07:30;;;;;;;;;;;3.40;99.90;;;;;;5037672;28;20087;-70
2022/12/05 04:09:59;;;;;;;;;;;3.40;99.90;;;;;;5049402;28;20023;-71
2022/12/05 04:12:29;;;;;;;;;;;3.40;99.90;;;;;;5055555;28;19938;-72
2022/12/05 04:15:02;;;;;;;;;;;3.40;99.90;;;;;;5036286;28;19932;-72
2022/12/05 04:17:30;;;;;;;;;;;3.40;99.90;;;;;;5053432;28;20581;-72
2022/12/05 04:22:59;;;;;;;;;;;3.40;99.90;;;;;;5035928;28;20471;-71
2022/12/05 04:25:36;;;;;;;;;;;3.40;99.90;;;;;;5036621;28;20184;-70
2022/12/05 04:28:12;;;;;;;;;;;3.40;99.90;;;;;;5037392;28;20079;-71
2022/12/05 04:30:48;;;;;;;;;;;3.40;99.90;;;;;;5033675;28;20085;-71
2022/12/05 04:33:30;;;;;;;;;;;3.30;99.90;;;;;;5037864;28;20003;-72
2022/12/05 04:36:16;;;;;;;;;;;3.40;99.90;;;;;;5041859;28;20271;-71
2022/12/05 04:38:50;;;;;;;;;;;3.30;99.90;;;;;;5030964;28;20103;-72
2022/12/05 04:41:31;;;;;;;;;;;3.40;99.90;;;;;;5040655;28;20287;-71
2022/12/05 04:44:05;;;;;;;;;;;3.40;99.90;;;;;;5042604;28;19932;-71
2022/12/05 04:46:36;;;;;;;;;;;3.40;99.90;;;;;;5040865;28;20024;-71
2022/12/05 04:49:09;;;;;;;;;;;3.40;99.90;;;;;;5042352;28;20105;-71
2022/12/05 04:51:48;;;;;;;;;;;3.30;99.90;;;;;;5044005;28;19963;-70
2022/12/05 04:54:20;;;;;;;;;;;3.40;99.90;;;;;;5042591;28;19981;-83
2022/12/05 04:57:10;;;;;;;;;;;3.40;99.90;;;;;;5040290;28;19924;-72
2022/12/05 04:59:40;;;;;;;;;;;3.40;99.90;;;;;;5048059;28;21966;-70
2022/12/05 05:02:15;;;;;;;;;;;3.40;99.90;;;;;;5045374;28;20159;-71
2022/12/05 05:04:44;;;;;;;;;;;3.40;99.90;;;;;;5036354;28;19935;-70
2022/12/05 05:07:18;;;;;;;;;;;3.30;99.90;;;;;;5049009;28;20110;-71
2022/12/05 05:09:52;;;;;;;;;;;3.40;99.90;;;;;;5053599;28;20127;-71
2022/12/05 05:12:19;;;;;;;;;;;3.40;99.90;;;;;;5048968;28;20331;-70
2022/12/05 05:14:46;;;;;;;;;;;3.40;99.90;;;;;;5052147;28;20156;-71
2022/12/05 05:23:15;;;;;;;;;;;3.40;99.90;;;;;;5045515;28;19928;-71
2022/12/05 05:25:42;;;;;;;;;;;3.30;99.90;;;;;;5046610;28;19929;-71
2022/12/05 05:28:16;;;;;;;;;;;3.40;99.90;;;;;;5043224;28;20139;-72
2022/12/05 05:30:44;;;;;;;;;;;3.40;99.90;;;;;;5045230;28;20001;-72
2022/12/05 05:33:18;;;;;;;;;;;3.30;99.90;;;;;;5046574;28;20801;-70
2022/12/05 05:35:52;;;;;;;;;;;3.30;99.90;;;;;;5053495;28;19971;-71
2022/12/05 05:38:20;;;;;;;;;;;3.40;99.90;;;;;;5049935;28;19932;-86
2022/12/05 05:40:50;;;;;;;;;;;3.40;99.90;;;;;;5049940;28;20086;-72
2022/12/05 05:43:17;;;;;;;;;;;3.40;99.90;;;;;;5044459;28;20168;-87
2022/12/05 05:45:50;;;;;;;;;;;3.40;99.90;;;;;;5044253;28;20021;-71
2022/12/05 05:48:24;;;;;;;;;;;3.40;99.90;;;;;;5056503;28;20376;-72
2022/12/05 05:50:51;;;;;;;;;;;3.40;99.90;;;;;;5048183;28;19924;-73
2022/12/05 05:53:32;;;;;;;;;;;3.40;99.90;;;;;;5050298;28;19938;-71
2022/12/05 05:56:06;;;;;;;;;;;3.30;99.90;;;;;;5040503;28;20044;-71
2022/12/05 05:58:33;;;;;;;;;;;3.40;99.90;;;;;;5050951;28;20261;-77
2022/12/05 06:01:13;;;;;;;;;;;3.40;99.90;;;;;;5049073;28;20023;-77
2022/12/05 06:03:50;;;;;;;;;;;3.40;99.90;;;;;;5041860;28;20755;-86
2022/12/05 06:09:00;;;;;;;;;;;3.40;99.90;;;;;;5042928;28;19928;-70
2022/12/05 06:11:32;;;;;;;;;;;3.40;99.90;;;;;;5043608;28;20055;-70
2022/12/05 06:14:00;;;;;;;;;;;3.40;99.90;;;;;;5044571;28;19959;-71
2022/12/05 06:16:28;;;;;;;;;;;3.30;99.90;;;;;;5040051;28;20310;-71
2022/12/05 06:18:55;;;;;;;;;;;3.30;99.90;;;;;;5044820;28;20086;-71
2022/12/05 06:21:22;;;;;;;;;;;3.30;99.90;;;;;;5048541;28;19932;-72
2022/12/05 06:23:49;;;;;;;;;;;3.30;99.90;;;;;;5047069;28;19951;-85
2022/12/05 06:26:27;;;;;;;;;;;3.30;99.90;;;;;;5047257;28;19932;-71
2022/12/05 06:28:54;;;;;;;;;;;3.40;99.90;;;;;;5042613;28;19971;-71
2022/12/05 06:31:30;;;;;;;;;;;3.40;99.90;;;;;;5045294;28;19928;-72
2022/12/05 06:34:11;;;;;;;;;;;3.40;99.90;;;;;;5041924;28;19972;-81
2022/12/05 06:36:38;;;;;;;;;;;3.40;99.90;;;;;;5048415;28;19981;-72
2022/12/05 06:39:05;;;;;;;;;;;3.30;99.90;;;;;;5045975;28;19935;-71
2022/12/05 06:41:47;;;;;;;;;;;3.40;99.90;;;;;;5043860;28;19927;-72
2022/12/05 06:44:25;;;;;;;;;;;3.30;99.90;;;;;;5047376;28;20001;-73
2022/12/05 06:46:53;;;;;;;;;;;3.40;99.90;;;;;;5048260;28;19928;-70
2022/12/05 06:49:25;;;;;;;;;;;3.40;99.90;;;;;;5049932;28;19932;-71
2022/12/05 06:51:58;;;;;;;;;;;3.40;99.90;;;;;;5041137;28;19958;-72
2022/12/05 06:54:28;;;;;;;;;;;3.40;99.90;;;;;;5044201;28;20044;-71
2022/12/05 06:57:05;;;;;;;;;;;3.30;99.90;;;;;;5056340;28;20589;-71
2022/12/05 06:59:33;;;;;;;;;;;3.30;99.90;;;;;;5053299;28;20525;-72
2022/12/05 07:02:08;;;;;;;;;;;3.40;99.90;;;;;;5053119;28;21153;-72
2022/12/05 07:04:36;;;;;;;;;;;3.40;99.90;;;;;;5057557;28;20037;-72
2022/12/05 07:07:06;;;;;;;;;;;3.30;99.90;;;;;;5059717;28;20087;-72
2022/12/05 07:12:29;;;;;;;;;;;3.30;99.90;;;;;;5046411;28;19929;-72
2022/12/05 07:15:05;;;;;;;;;;;3.30;99.90;;;;;;5053870;28;19932;-70
2022/12/05 07:17:35;;;;;;;;;;;3.30;99.90;;;;;;5051186;28;19985;-69
2022/12/05 07:20:04;;;;;;;;;;;3.30;99.90;;;;;;5053164;28;19967;-70
2022/12/05 07:22:31;;;;;;;;;;;3.30;99.90;;;;;;5055565;28;19932;-71
2022/12/05 07:24:58;;;;;;;;;;;3.30;99.90;;;;;;5057849;28;19934;-71
2022/12/05 07:27:26;;;;;;;;;;;3.30;99.90;;;;;;5055719;28;19928;-71
2022/12/05 07:29:54;;;;;;;;;;;3.30;99.90;;;;;;5058268;28;19927;-70
2022/12/05 07:32:23;;;;;;;;;;;3.30;99.90;;;;;;5056930;28;20394;-71
2022/12/05 07:34:53;;;;;;;;;;;3.30;99.90;;;;;;5059075;28;20093;-72
2022/12/05 07:37:44;;;;;;;;;;;3.30;99.90;;;;;;5048700;28;20578;-72
2022/12/05 07:40:13;;;;;;;;;;;3.40;99.90;;;;;;5056044;28;19956;-72
2022/12/05 07:42:53;;;;;;;;;;;3.30;99.90;;;;;;5053000;28;19964;-72
2022/12/05 07:45:21;;;;;;;;;;;3.30;99.90;;;;;;5052758;28;19928;-71
2022/12/05 07:47:47;;;;;;;;;;;3.30;99.90;;;;;;5054975;28;19939;-73
2022/12/05 07:50:15;;;;;;;;;;;3.30;99.90;;;;;;5055014;28;19981;-71
2022/12/05 07:52:42;;;;;;;;;;;3.30;99.90;;;;;;5046897;28;19935;-71
2022/12/05 07:55:13;;;;;;;;;;;3.30;99.90;;;;;;5053964;28;20066;-72
2022/12/05 07:57:42;;;;;;;;;;;3.30;99.90;;;;;;5057096;28;19928;-71
2022/12/05 08:00:11;;;;;;;;;;;3.30;99.90;;;;;;5046888;28;19932;-72
2022/12/05 08:02:41;;;;;;;;;;;3.30;99.90;;;;;;5073507;28;19932;-71
2022/12/05 08:05:08;;;;;;;;;;;3.30;99.90;;;;;;5052788;28;19929;-73
2022/12/05 08:07:49;;;;;;;;;;;3.40;99.90;;;;;;5058667;28;19955;-73
2022/12/05 08:10:16;;;;;;;;;;;3.30;99.90;;;;;;5055821;28;19935;-73
2022/12/05 08:12:47;;;;;;;;;;;3.40;99.90;;;;;;5052352;28;20155;-71
2022/12/05 08:15:16;;;;;;;;;;;3.40;99.90;;;;;;5052929;28;20455;-72
2022/12/05 08:17:50;;;;;;;;;;;3.40;99.90;;;;;;5057264;28;20104;-72
2022/12/05 08:20:17;;;;;;;;;;;3.40;99.90;;;;;;5051998;28;19986;-72
2022/12/05 08:22:44;;;;;;;;;;;3.40;99.90;;;;;;5069287;28;19928;-72
2022/12/05 08:25:10;;;;;;;;;;;3.40;99.90;;;;;;5073456;28;19932;-72
2022/12/05 08:27:39;;;;;;;;;;;3.40;99.90;;;;;;5051015;28;19940;-73
2022/12/05 08:30:11;;;;;;;;;;;3.40;99.90;;;;;;5052402;28;19931;-72
2022/12/05 08:32:38;;;;;;;;;;;3.40;99.90;;;;;;5061089;28;19939;-73
2022/12/05 08:35:19;;;;;;;;;;;3.40;99.90;;;;;;5053284;28;19924;-72
2022/12/05 08:37:46;;;;;;;;;;;3.40;99.90;;;;;;5049011;28;20398;-71
2022/12/05 08:40:15;;;;;;;;;;;3.40;99.90;;;;;;5051918;28;20078;-71
2022/12/05 08:42:43;;;;;;;;;;;3.40;99.90;;;;;;5053403;28;20047;-72
2022/12/05 08:45:11;;;;;;;;;;;3.40;99.90;;;;;;5072054;28;20584;-72
2022/12/05 08:47:38;;;;;;;;;;;3.40;99.90;;;;;;5050349;28;19981;-73
2022/12/05 08:50:20;;;;;;;;;;;3.40;99.90;;;;;;5060947;28;19928;-72
2022/12/05 08:52:48;;;;;;;;;;;3.40;99.90;;;;;;5053809;28;19928;-72
2022/12/05 08:55:15;;;;;;;;;;;3.40;99.90;;;;;;5047576;28;20107;-72
2022/12/05 08:57:42;;;;;;;;;;;3.40;99.90;;;;;;5039195;28;20539;-72
2022/12/05 09:00:32;;;;;;;;;;;3.40;99.90;;;;;;5049326;28;20001;-72
2022/12/05 09:03:03;;;;;;;;;;;3.40;99.90;;;;;;5045125;28;20084;-72
2022/12/05 09:05:40;;;;;;;;;;;3.40;99.90;;;;;;5036732;28;20296;-72
2022/12/05 09:08:08;;;;;;;;;;;3.40;99.90;;;;;;5046332;28;20102;-72
2022/12/05 09:10:36;;;;;;;;;;;3.50;99.90;;;;;;5045692;28;20390;-72
2022/12/05 09:13:14;;;;;;;;;;;3.40;99.90;;;;;;5043714;28;20446;-72
2022/12/05 09:16:07;;;;;;;;;;;3.50;99.90;;;;;;5058745;28;19924;-72
2022/12/05 09:18:37;;;;;;;;;;;3.50;99.90;;;;;;5038942;28;19934;-72
2022/12/05 09:21:10;;;;;;;;;;;3.50;99.90;;;;;;5052459;28;20005;-72
2022/12/05 09:23:38;;;;;;;;;;;3.50;99.90;;;;;;5052529;28;20382;-72
2022/12/05 09:26:10;;;;;;;;;;;3.50;99.90;;;;;;5049125;28;20166;-72
2022/12/05 09:28:46;;;;;;;;;;;3.50;99.90;;;;;;5040482;28;20425;-71
2022/12/05 09:31:35;;;;;;;;;;;3.50;99.90;;;;;;5040684;28;20645;-71
2022/12/05 09:34:12;;;;;;;;;;;3.50;99.90;;;;;;5046645;28;19932;-71
2022/12/05 09:36:48;;;;;;;;;;;3.50;99.90;;;;;;5049257;28;19928;-70
2022/12/05 09:39:22;;;;;;;;;;;3.50;99.90;;;;;;5040410;28;19990;-71
2022/12/05 09:42:08;;;;;;;;;;;3.50;99.90;;;;;;5051546;28;20418;-71
2022/12/05 09:44:56;;;;;;;;;;;3.50;99.90;;;;;;5043680;28;20178;-70
2022/12/05 09:47:44;;;;;;;;;;;3.50;99.90;;;;;;5044773;28;20001;-71
2022/12/05 09:50:28;;;;;;;;;;;3.50;99.90;;;;;;5036049;28;19927;-73
2022/12/05 09:53:13;;;;;;;;;;;3.60;99.90;;;;;;5048313;28;20078;-72
2022/12/05 09:55:54;;;;;;;;;;;3.60;99.90;;;;;;5046600;28;20023;-72
2022/12/05 09:58:38;;;;;;;;;;;3.70;99.90;;;;;;5045356;28;20175;-72
2022/12/05 10:01:40;;;;;;;;;;;3.60;99.90;;;;;;5050647;28;19998;-72
2022/12/05 10:04:22;;;;;;;;;;;3.60;99.90;;;;;;4980660;28;20478;-72
2022/12/05 10:07:06;;;;;;;;;;;3.60;99.90;;;;;;4990303;28;20092;-72
2022/12/05 10:09:52;;;;;;;;;;;3.60;99.90;;;;;;5025032;28;20606;-71
2022/12/05 10:12:27;;;;;;;;;;;3.60;99.90;;;;;;5053233;28;19932;-71
2022/12/05 10:15:14;;;;;;;;;;;3.60;99.90;;;;;;5046564;28;20035;-73
2022/12/05 10:17:42;;;;;;;;;;;3.60;99.90;;;;;;5041155;28;20046;-73
2022/12/05 10:20:18;;;;;;;;;;;3.60;99.90;;;;;;5045820;28;20481;-73
2022/12/05 10:22:50;;;;;;;;;;;3.60;99.90;;;;;;5055602;28;20051;-72
2022/12/05 10:25:22;;;;;;;;;;;3.60;99.90;;;;;;5050946;28;20398;-73
2022/12/05 10:28:00;;;;;;;;;;;3.70;99.90;;;;;;5052787;28;19975;-72
2022/12/05 10:30:34;;;;;;;;;;;3.70;99.90;;;;;;5054512;28;20270;-72
2022/12/05 10:33:12;;;;;;;;;;;3.70;99.90;;;;;;5048457;28;20216;-71
2022/12/05 10:35:42;;;;;;;;;;;3.70;99.90;;;;;;5046185;28;20313;-74
2022/12/05 10:38:18;;;;;;;;;;;3.60;99.90;;;;;;5044891;28;19958;-73
2022/12/05 10:40:57;;;;;;;;;;;3.70;99.90;;;;;;5057318;28;20077;-75
2022/12/05 10:43:32;;;;;;;;;;;3.70;99.90;;;;;;5054322;28;19924;-71
2022/12/05 10:46:00;;;;;;;;;;;3.70;99.90;;;;;;5050528;28;20029;-71
2022/12/05 10:48:27;;;;;;;;;;;3.70;99.90;;;;;;5049983;28;20705;-71
2022/12/05 10:50:55;;;;;;;;;;;3.70;99.90;;;;;;5059136;28;20006;-72
2022/12/05 10:53:24;;;;;;;;;;;3.70;99.90;;;;;;5056055;28;20047;-70
2022/12/05 10:55:56;;;;;;;;;;;3.70;99.90;;;;;;5051016;28;19997;-71
2022/12/05 10:58:27;;;;;;;;;;;3.70;99.90;;;;;;5049407;28;20013;-71
2022/12/05 11:01:00;;;;;;;;;;;3.70;99.90;;;;;;5058293;28;19940;-71
2022/12/05 11:03:37;;;;;;;;;;;3.70;99.90;;;;;;5050718;28;20084;-72
2022/12/05 11:06:16;;;;;;;;;;;3.80;99.90;;;;;;5046904;28;20176;-72
2022/12/05 11:08:51;;;;;;;;;;;3.80;99.90;;;;;;5055095;28;19932;-72
2022/12/05 11:11:23;;;;;;;;;;;3.70;99.90;;;;;;5060059;28;19950;-72
2022/12/05 11:13:58;;;;;;;;;;;3.70;99.90;;;;;;5050409;28;19924;-71
2022/12/05 11:16:26;;;;;;;;;;;3.80;99.90;;;;;;5053848;28;19928;-71
2022/12/05 11:18:54;;;;;;;;;;;3.90;99.90;;;;;;5057445;28;20146;-71
2022/12/05 11:21:23;;;;;;;;;;;3.80;99.90;;;;;;5052917;28;20079;-72
2022/12/05 11:23:57;;;;;;;;;;;3.80;99.90;;;;;;5060087;28;19932;-71
2022/12/05 11:26:37;;;;;;;;;;;3.80;99.90;;;;;;5060633;28;19985;-72
2022/12/05 11:29:04;;;;;;;;;;;3.80;99.90;;;;;;5056332;28;19932;-72
2022/12/05 11:31:31;;;;;;;;;;;3.80;99.90;;;;;;5050791;28;19932;-72
2022/12/05 11:34:13;;;;;;;;;;;3.80;99.90;;;;;;5054966;28;20033;-72
2022/12/05 11:36:46;;;;;;;;;;;3.80;99.90;;;;;;5053990;28;19928;-71
2022/12/05 11:39:14;;;;;;;;;;;3.80;99.90;;;;;;5053259;28;20047;-71
2022/12/05 11:41:57;;;;;;;;;;;3.90;99.90;;;;;;5057874;28;19932;-71
2022/12/05 11:44:36;;;;;;;;;;;3.90;99.90;;;;;;5054129;28;19967;-71
2022/12/05 11:47:12;;;;;;;;;;;3.90;99.90;;;;;;5049465;28;20142;-69
2022/12/05 11:49:52;;;;;;;;;;;3.90;99.90;;;;;;5059629;28;20401;-72
2022/12/05 11:52:30;;;;;;;;;;;3.90;99.90;;;;;;5055127;28;19955;-71
2022/12/05 11:55:08;;;;;;;;;;;3.80;99.90;;;;;;5050350;28;20366;-71
2022/12/05 11:57:52;;;;;;;;;;;3.90;99.90;;;;;;5051409;28;20131;-72
2022/12/05 12:00:22;;;;;;;;;;;3.90;99.90;;;;;;5058749;28;20284;-71
2022/12/05 12:03:15;;;;;;;;;;;3.90;99.90;;;;;;5054910;28;21013;-71
2022/12/05 12:08:34;;;;;;;;;;;3.90;99.90;;;;;;5057599;28;19932;-70
2022/12/05 12:11:14;;;;;;;;;;;3.90;99.90;;;;;;5056638;28;19932;-72
2022/12/05 12:14:02;;;;;;;;;;;3.90;99.90;;;;;;5036147;28;20624;-71
2022/12/05 12:16:37;;;;;;;;;;;3.90;99.90;;;;;;5056534;28;20044;-71
2022/12/05 12:19:19;;;;;;;;;;;4.00;99.90;;;;;;5056115;28;19932;-72
2022/12/05 12:22:01;;;;;;;;;;;4.00;99.90;;;;;;5054521;28;20765;-71
2022/12/05 12:24:36;;;;;;;;;;;4.00;99.90;;;;;;5054776;28;20364;-70
2022/12/05 12:27:16;;;;;;;;;;;4.00;99.90;;;;;;5052641;28;20714;-70
2022/12/05 12:29:55;;;;;;;;;;;4.00;99.90;;;;;;5054448;28;19928;-70
2022/12/05 12:32:29;;;;;;;;;;;4.00;99.90;;;;;;5042834;28;19935;-70
2022/12/05 12:35:06;;;;;;;;;;;4.00;99.90;;;;;;5055588;28;19932;-70
2022/12/05 12:37:45;;;;;;;;;;;4.00;99.90;;;;;;5050267;28;20093;-72
2022/12/05 12:40:14;;;;;;;;;;;4.00;99.90;;;;;;5048976;28;19938;-73
2022/12/05 12:42:48;;;;;;;;;;;4.10;99.90;;;;;;5053904;28;19939;-72
2022/12/05 12:45:34;;;;;;;;;;;4.10;99.90;;;;;;5058881;28;20428;-73
2022/12/05 12:48:10;;;;;;;;;;;4.10;99.90;;;;;;5055585;28;20219;-73
2022/12/05 12:50:44;;;;;;;;;;;4.10;99.90;;;;;;5052250;28;20158;-72
2022/12/05 12:53:34;;;;;;;;;;;4.10;99.90;;;;;;5046252;28;20183;-73
2022/12/05 12:56:07;;;;;;;;;;;4.10;99.90;;;;;;5055923;28;21195;-71
2022/12/05 12:58:41;;;;;;;;;;;4.10;99.90;;;;;;5048826;28;19928;-71
2022/12/05 13:01:12;;;;;;;;;;;4.10;99.90;;;;;;5048354;28;19936;-71
2022/12/05 13:03:46;;;;;;;;;;;4.20;99.90;;;;;;5049149;28;20063;-71
2022/12/05 13:06:15;;;;;;;;;;;4.10;99.90;;;;;;5041342;28;20063;-72
2022/12/05 13:08:49;;;;;;;;;;;4.20;99.90;;;;;;5052511;28;19928;-71
2022/12/05 13:11:20;;;;;;;;;;;4.20;99.90;;;;;;5054395;28;20355;-71
2022/12/05 13:13:50;;;;;;;;;;;4.20;99.90;;;;;;5053636;28;20063;-72
2022/12/05 13:16:24;;;;;;;;;;;4.20;99.90;;;;;;5047223;28;19939;-71
2022/12/05 13:18:54;;;;;;;;;;;4.20;99.90;;;;;;5048349;28;20123;-71
2022/12/05 13:21:24;;;;;;;;;;;4.20;99.90;;;;;;5068208;28;20085;-72
2022/12/05 13:23:54;;;;;;;;;;;4.20;99.90;;;;;;5046130;28;19925;-72
2022/12/05 13:26:28;;;;;;;;;;;4.20;99.90;;;;;;5048031;28;19920;-71
2022/12/05 13:29:01;;;;;;;;;;;4.20;99.90;;;;;;5052364;28;20168;-71
2022/12/05 13:32:08;;;;;;;;;;;4.30;99.90;;;;;;5048738;28;19932;-71
2022/12/05 13:34:52;;;;;;;;;;;4.20;99.90;;;;;;5032650;28;20274;-70
2022/12/05 13:43:07;;;;;;;;;;;4.30;99.90;;;;;;5051792;28;19935;-70
2022/12/05 13:45:39;;;;;;;;;;;4.30;99.90;;;;;;5054199;28;20348;-70
2022/12/05 13:48:15;;;;;;;;;;;4.30;99.90;;;;;;5049831;28;20413;-70
2022/12/05 13:50:58;;;;;;;;;;;4.30;99.90;;;;;;5044765;28;20058;-70
2022/12/05 13:53:29;;;;;;;;;;;4.30;99.90;;;;;;5046938;28;20110;-70
2022/12/05 13:56:02;;;;;;;;;;;4.30;99.90;;;;;;5053239;28;20382;-70
2022/12/05 13:58:42;;;;;;;;;;;4.30;99.90;;;;;;5056605;28;19935;-70
2022/12/05 14:01:38;;;;;;;;;;;4.40;99.90;;;;;;5050659;28;19960;-70
2022/12/05 14:04:22;;;;;;;;;;;4.40;99.90;;;;;;5012270;28;20043;-70
2022/12/05 14:07:13;;;;;;;;;;;4.40;99.90;;;;;;5049398;28;20030;-72
2022/12/05 14:09:57;;;;;;;;;;;4.40;99.90;;;;;;5034274;28;19932;-70
2022/12/05 14:12:38;;;;;;;;;;;4.40;99.90;;;;;;5047479;28;20101;-70
2022/12/05 14:15:28;;;;;;;;;;;4.40;99.90;;;;;;5051832;28;20205;-70
2022/12/05 14:18:00;;;;;;;;;;;4.40;99.90;;;;;;5052372;28;20289;-70
2022/12/05 14:20:31;;;;;;;;;;;4.40;99.90;;;;;;5042592;28;19928;-71
2022/12/05 14:23:06;;;;;;;;;;;4.40;99.90;;;;;;5053576;28;19959;-71
2022/12/05 14:25:42;;;;;;;;;;;4.40;99.90;;;;;;5048356;28;20173;-71
2022/12/05 14:28:24;;;;;;;;;;;4.50;99.90;;;;;;5047177;28;19999;-72
2022/12/05 14:31:00;;;;;;;;;;;4.40;99.90;;;;;;5044690;28;20009;-72
2022/12/05 14:33:34;;;;;;;;;;;4.40;99.90;;;;;;5064524;28;20139;-71
2022/12/05 14:36:12;;;;;;;;;;;4.40;99.90;;;;;;5046179;28;19932;-70
2022/12/05 14:38:39;;;;;;;;;;;4.50;99.90;;;;;;5042578;28;20472;-71
2022/12/05 14:41:22;;;;;;;;;;;4.40;99.90;;;;;;5056383;28;19928;-71
2022/12/05 14:44:05;;;;;;;;;;;4.50;99.90;;;;;;5059842;28;20031;-72
2022/12/05 14:46:35;;;;;;;;;;;4.50;99.90;;;;;;5047029;28;19939;-72
2022/12/05 14:52:12;;;;;;;;;;;4.50;99.90;;;;;;5042884;28;20489;-72
2022/12/05 14:54:48;;;;;;;;;;;4.50;99.90;;;;;;5042887;28;19971;-71
2022/12/05 14:57:20;;;;;;;;;;;4.50;99.90;;;;;;5047697;28;20207;-72
2022/12/05 14:59:50;;;;;;;;;;;4.50;99.90;;;;;;5053892;28;19943;-71
2022/12/05 15:02:22;;;;;;;;;;;4.50;99.90;;;;;;5045189;28;19943;-71
2022/12/05 15:04:55;;;;;;;;;;;4.50;99.90;;;;;;5044720;28;20387;-72
2022/12/05 15:07:42;;;;;;;;;;;4.50;99.90;;;;;;5040773;28;20393;-71
2022/12/05 15:10:16;;;;;;;;;;;4.50;99.90;;;;;;5034969;28;19928;-71
2022/12/05 15:12:49;;;;;;;;;;;4.50;99.90;;;;;;5035390;28;19936;-70
2022/12/05 15:15:21;;;;;;;;;;;4.50;99.90;;;;;;5044244;28;19928;-72
2022/12/05 15:17:55;;;;;;;;;;;4.60;99.90;;;;;;5046961;28;19932;-71
2022/12/05 15:23:39;;;;;;;;;;;4.50;99.90;;;;;;5038182;28;19942;-70
2022/12/05 15:26:20;;;;;;;;;;;4.50;99.90;;;;;;5039590;28;19935;-71
2022/12/05 15:29:14;;;;;;;;;;;4.60;99.90;;;;;;5039873;28;19943;-74
2022/12/05 15:31:49;;;;;;;;;;;4.60;99.90;;;;;;5041133;28;20191;-72
2022/12/05 15:34:22;;;;;;;;;;;4.50;99.90;;;;;;5041612;28;20033;-72
2022/12/05 15:36:51;;;;;;;;;;;4.50;99.90;;;;;;5054585;28;19955;-71
2022/12/05 15:39:32;;;;;;;;;;;4.60;99.90;;;;;;5048025;28;19932;-71
2022/12/05 15:42:04;;;;;;;;;;;4.50;99.90;;;;;;5034810;28;20429;-71
2022/12/05 15:44:33;;;;;;;;;;;4.60;99.90;;;;;;5037070;28;20022;-71
2022/12/05 15:47:08;;;;;;;;;;;4.60;99.90;;;;;;5034124;28;19927;-72
2022/12/05 15:49:40;;;;;;;;;;;4.60;99.90;;;;;;5037451;28;20077;-70
2022/12/05 15:52:23;;;;;;;;;;;4.60;99.90;;;;;;5047101;28;19932;-70
2022/12/05 15:54:56;;;;;;;;;;;4.60;99.90;;;;;;5046994;28;19967;-72